createdAt,value
2022-09-21T00:00:48.559Z,2.80
2022-09-21T00:01:51.004Z,4.90
2022-09-21T00:02:55.776Z,3.30
2022-09-21T00:04:01.152Z,4.30
2022-09-21T00:05:03.318Z,6.00
2022-09-21T00:06:07.529Z,4.20
2022-09-21T00:07:10.506Z,6.00
2022-09-21T00:08:13.657Z,5.10
2022-09-21T00:09:15.757Z,5.00
2022-09-21T00:10:20.344Z,4.50
2022-09-21T00:11:25.474Z,4.36
2022-09-21T00:12:27.400Z,3.10
2022-09-21T00:13:29.638Z,5.67
2022-09-21T00:14:31.794Z,4.50
2022-09-21T00:15:34.219Z,5.80
2022-09-21T00:16:36.495Z,5.40
2022-09-21T00:17:38.591Z,6.70
2022-09-21T00:18:40.860Z,6.67
2022-09-21T00:19:42.876Z,6.50
2022-09-21T00:20:44.854Z,6.50
2022-09-21T00:21:47.242Z,7.33
2022-09-21T00:22:49.415Z,7.50
2022-09-21T00:23:51.349Z,7.40
2022-09-21T00:24:53.066Z,6.22
2022-09-21T00:26:07.418Z,5.22
2022-09-21T00:27:09.358Z,6.80
2022-09-21T00:28:11.294Z,6.33
2022-09-21T00:29:13.216Z,5.11
2022-09-21T00:30:15.760Z,7.10
2022-09-21T00:31:17.699Z,4.00
2022-09-21T00:32:19.541Z,5.30
2022-09-21T00:33:21.394Z,5.11
2022-09-21T00:34:23.353Z,7.11
2022-09-21T00:35:25.429Z,7.20
2022-09-21T00:36:27.997Z,5.50
2022-09-21T00:37:30.363Z,4.60
2022-09-21T00:38:33.563Z,5.80
2022-09-21T00:39:35.517Z,5.40
2022-09-21T00:40:37.626Z,6.50
2022-09-21T00:41:39.626Z,5.40
2022-09-21T00:42:41.702Z,5.80
2022-09-21T00:43:50.246Z,6.40
2022-09-21T00:44:52.721Z,5.00
2022-09-21T00:46:04.645Z,5.80
2022-09-21T00:47:13.155Z,5.10
2022-09-21T00:48:15.414Z,5.50
2022-09-21T00:49:17.896Z,5.90
2022-09-21T00:50:24.933Z,6.30
2022-09-21T00:51:27.186Z,5.30
2022-09-21T00:52:32.779Z,6.10
2022-09-21T00:53:37.063Z,5.70
2022-09-21T00:54:42.714Z,6.30
2022-09-21T00:55:48.376Z,7.10
2022-09-21T00:56:50.716Z,7.90
2022-09-21T00:57:56.243Z,7.20
2022-09-21T00:58:58.298Z,6.90
2022-09-21T01:00:03.841Z,7.70
2022-09-21T01:01:06.058Z,7.20
2022-09-21T01:02:08.475Z,7.90
2022-09-21T01:03:13.345Z,8.00
2022-09-21T01:04:16.077Z,7.80
2022-09-21T01:05:18.132Z,6.40
2022-09-21T01:06:20.815Z,6.90
2022-09-21T01:07:26.404Z,7.20
2022-09-21T01:08:29.224Z,7.40
2022-09-21T01:09:32.156Z,6.20
2022-09-21T01:11:00.090Z,7.00
2022-09-21T01:12:17.593Z,6.70
2022-09-21T01:13:45.558Z,5.30
2022-09-21T01:16:16.881Z,7.20
2022-09-21T01:17:48.451Z,5.10
2022-09-21T01:20:22.899Z,6.50
2022-09-21T01:21:34.445Z,5.50
2022-09-21T01:23:00.976Z,6.20
2022-09-21T01:24:27.874Z,5.40
2022-09-21T01:25:42.721Z,6.00
2022-09-21T01:27:09.857Z,6.20
2022-09-21T01:28:21.436Z,5.00
2022-09-21T01:29:36.374Z,5.50
2022-09-21T01:30:45.673Z,4.80
2022-09-21T01:32:05.162Z,5.90
2022-09-21T01:33:17.093Z,6.30
2022-09-21T01:34:37.604Z,5.80
2022-09-21T01:35:46.252Z,6.40
2022-09-21T01:36:51.484Z,5.90
2022-09-21T01:37:59.871Z,6.80
2022-09-21T01:39:08.218Z,5.70
2022-09-21T01:40:24.181Z,5.90
2022-09-21T01:41:29.919Z,6.30
2022-09-21T01:42:35.066Z,5.20
2022-09-21T01:43:43.457Z,7.70
2022-09-21T01:44:47.512Z,4.70
2022-09-21T01:45:53.087Z,4.60
2022-09-21T01:46:58.256Z,5.40
2022-09-21T01:48:01.067Z,8.10
2022-09-21T01:49:06.775Z,5.80
2022-09-21T01:50:11.300Z,6.60
2022-09-21T01:51:16.027Z,5.60
2022-09-21T01:52:24.378Z,6.60
2022-09-21T01:53:42.122Z,5.80
2022-09-21T01:54:51.831Z,5.30
2022-09-21T01:55:57.414Z,5.80
2022-09-21T01:57:05.869Z,6.70
2022-09-21T01:58:14.658Z,6.00
2022-09-21T01:59:23.196Z,6.50
2022-09-21T02:00:27.023Z,6.50
2022-09-21T02:01:32.661Z,7.40
2022-09-21T02:02:38.316Z,7.80
2022-09-21T02:03:43.926Z,6.80
2022-09-21T02:04:46.027Z,6.80
2022-09-21T02:05:48.168Z,4.70
2022-09-21T02:06:51.169Z,4.70
2022-09-21T02:07:54.941Z,6.00
2022-09-21T02:08:57.263Z,7.10
2022-09-21T02:10:00.931Z,3.10
2022-09-21T02:11:05.005Z,4.10
2022-09-21T02:12:07.440Z,6.00
2022-09-21T02:13:10.611Z,4.30
2022-09-21T02:14:16.159Z,6.90
2022-09-21T02:15:21.839Z,6.20
2022-09-21T02:16:46.156Z,6.00
2022-09-21T02:17:54.581Z,5.50
2022-09-21T02:19:15.507Z,6.80
2022-09-21T02:20:21.394Z,5.40
2022-09-21T02:21:39.257Z,5.70
2022-09-21T02:23:03.165Z,5.80
2022-09-21T02:25:29.147Z,5.80
2022-09-21T02:26:37.978Z,5.90
2022-09-21T02:27:58.866Z,4.70
2022-09-21T02:29:25.554Z,5.60
2022-09-21T02:30:29.515Z,4.80
2022-09-21T02:31:53.168Z,6.20
2022-09-21T02:33:15.311Z,6.70
2022-09-21T02:34:35.481Z,5.50
2022-09-21T02:35:47.217Z,5.00
2022-09-21T02:36:57.166Z,4.90
2022-09-21T02:38:06.363Z,4.20
2022-09-21T02:39:17.645Z,5.30
2022-09-21T02:40:26.426Z,5.30
2022-09-21T02:41:32.182Z,6.10
2022-09-21T02:42:38.704Z,5.60
2022-09-21T02:44:01.344Z,5.20
2022-09-21T02:45:12.987Z,5.30
2022-09-21T02:46:28.000Z,5.90
2022-09-21T02:47:40.022Z,5.60
2022-09-21T02:48:52.662Z,6.80
2022-09-21T02:50:01.202Z,6.90
2022-09-21T02:51:06.856Z,5.50
2022-09-21T02:52:12.441Z,6.90
2022-09-21T02:53:18.142Z,6.20
2022-09-21T02:54:23.829Z,5.80
2022-09-21T02:55:27.132Z,5.60
2022-09-21T02:56:31.890Z,5.50
2022-09-21T02:57:35.774Z,2.80
2022-09-21T02:58:42.374Z,5.70
2022-09-21T02:59:44.652Z,6.70
2022-09-21T03:00:47.022Z,4.90
2022-09-21T03:01:50.660Z,6.00
2022-09-21T03:02:52.747Z,5.30
2022-09-21T03:03:55.731Z,5.10
2022-09-21T03:04:58.806Z,6.10
2022-09-21T03:06:01.660Z,6.50
2022-09-21T03:07:03.686Z,6.50
2022-09-21T03:08:06.620Z,5.80
2022-09-21T03:09:08.671Z,5.82
2022-09-21T03:10:11.686Z,6.50
2022-09-21T03:11:18.157Z,6.10
2022-09-21T03:12:20.381Z,2.30
2022-09-21T03:13:22.776Z,6.40
2022-09-21T03:14:25.200Z,6.50
2022-09-21T03:15:27.237Z,7.20
2022-09-21T03:16:29.375Z,6.60
2022-09-21T03:17:31.532Z,6.70
2022-09-21T03:18:33.833Z,7.10
2022-09-21T03:19:35.667Z,8.20
2022-09-21T03:20:45.367Z,6.70
2022-09-21T03:21:47.292Z,6.20
2022-09-21T03:22:49.109Z,7.00
2022-09-21T03:23:51.092Z,7.89
2022-09-21T03:24:52.969Z,7.70
2022-09-21T03:25:55.453Z,6.11
2022-09-21T03:26:57.397Z,6.90
2022-09-21T03:27:59.571Z,4.56
2022-09-21T03:29:01.887Z,8.60
2022-09-21T03:30:06.840Z,7.00
2022-09-21T03:31:09.345Z,7.70
2022-09-21T03:32:11.999Z,8.00
2022-09-21T03:33:13.994Z,7.20
2022-09-21T03:34:15.987Z,6.30
2022-09-21T03:35:19.294Z,6.67
2022-09-21T03:36:21.917Z,8.50
2022-09-21T03:37:23.696Z,8.30
2022-09-21T03:38:26.030Z,8.89
2022-09-21T03:39:28.007Z,7.00
2022-09-21T03:40:30.762Z,7.80
2022-09-21T03:41:32.841Z,8.60
2022-09-21T03:42:34.696Z,6.78
2022-09-21T03:43:36.554Z,8.00
2022-09-21T03:44:38.577Z,6.50
2022-09-21T03:45:40.985Z,7.67
2022-09-21T03:46:43.699Z,7.20
2022-09-21T03:47:46.632Z,6.60
2022-09-21T03:48:48.574Z,7.10
2022-09-21T03:49:50.506Z,7.56
2022-09-21T03:50:53.274Z,5.00
2022-09-21T03:51:55.249Z,6.90
2022-09-21T03:52:57.913Z,6.78
2022-09-21T03:53:59.915Z,7.80
2022-09-21T03:55:01.905Z,7.30
2022-09-21T03:56:04.272Z,6.60
2022-09-21T03:57:06.095Z,6.60
2022-09-21T03:58:08.986Z,6.44
2022-09-21T03:59:14.109Z,5.82
2022-09-21T04:00:17.431Z,6.30
2022-09-21T04:01:20.102Z,6.00
2022-09-21T04:02:22.113Z,5.50
2022-09-21T04:03:27.883Z,6.00
2022-09-21T04:04:30.464Z,5.80
2022-09-21T04:05:32.490Z,5.40
2022-09-21T04:06:34.495Z,6.89
2022-09-21T04:07:37.240Z,8.30
2022-09-21T04:08:39.964Z,9.40
2022-09-21T04:09:42.422Z,8.20
2022-09-21T04:10:45.517Z,6.70
2022-09-21T04:11:47.626Z,9.18
2022-09-21T04:12:49.425Z,8.30
2022-09-21T04:13:53.031Z,8.56
2022-09-21T04:14:54.965Z,8.80
2022-09-21T04:15:56.933Z,8.44
2022-09-21T04:16:58.994Z,8.30
2022-09-21T04:18:00.946Z,6.89
2022-09-21T04:19:04.020Z,7.89
2022-09-21T04:20:07.689Z,8.00
2022-09-21T04:21:09.627Z,7.50
2022-09-21T04:22:12.119Z,8.60
2022-09-21T04:23:14.141Z,9.70
2022-09-21T04:24:18.212Z,8.40
2022-09-21T04:25:23.020Z,8.20
2022-09-21T04:26:33.419Z,5.00
2022-09-21T04:27:37.287Z,8.40
2022-09-21T04:28:41.041Z,7.10
2022-09-21T04:29:44.950Z,5.60
2022-09-21T04:30:53.790Z,6.80
2022-09-21T04:31:57.783Z,5.30
2022-09-21T04:33:01.819Z,5.80
2022-09-21T04:34:06.393Z,6.30
2022-09-21T04:35:10.562Z,6.60
2022-09-21T04:36:15.786Z,6.20
2022-09-21T04:37:19.393Z,5.70
2022-09-21T04:38:23.330Z,6.70
2022-09-21T04:39:27.492Z,5.90
2022-09-21T04:40:31.339Z,6.00
2022-09-21T04:41:33.398Z,6.60
2022-09-21T04:42:37.018Z,5.00
2022-09-21T04:43:41.122Z,6.56
2022-09-21T04:44:44.132Z,5.70
2022-09-21T04:45:46.646Z,6.27
2022-09-21T04:46:49.022Z,5.36
2022-09-21T04:47:50.845Z,4.00
2022-09-21T04:48:53.876Z,6.11
2022-09-21T04:49:57.715Z,6.00
2022-09-21T04:50:59.494Z,5.40
2022-09-21T04:52:01.556Z,6.33
2022-09-21T04:53:03.899Z,5.80
2022-09-21T04:54:06.358Z,6.10
2022-09-21T04:55:08.436Z,5.70
2022-09-21T04:56:13.909Z,4.40
2022-09-21T04:57:16.290Z,5.50
2022-09-21T04:58:22.441Z,4.90
2022-09-21T04:59:22.219Z,6.80
2022-09-21T05:00:24.257Z,6.10
2022-09-21T05:01:27.630Z,4.90
2022-09-21T05:02:29.514Z,4.60
2022-09-21T05:03:31.465Z,6.11
2022-09-21T05:04:33.327Z,5.40
2022-09-21T05:05:35.099Z,6.89
2022-09-21T05:06:36.943Z,6.00
2022-09-21T05:07:38.967Z,5.78
2022-09-21T05:08:40.952Z,6.60
2022-09-21T05:09:43.041Z,6.60
2022-09-21T05:10:45.460Z,6.50
2022-09-21T05:11:47.239Z,7.40
2022-09-21T05:12:49.121Z,6.78
2022-09-21T05:13:50.829Z,6.67
2022-09-21T05:14:52.712Z,7.33
2022-09-21T05:15:54.672Z,6.33
2022-09-21T05:16:58.724Z,6.70
2022-09-21T05:18:00.354Z,6.11
2022-09-21T05:19:03.004Z,7.11
2022-09-21T05:20:05.768Z,8.10
2022-09-21T05:21:11.614Z,8.10
2022-09-21T05:22:14.773Z,6.70
2022-09-21T05:23:16.955Z,8.27
2022-09-21T05:24:19.394Z,6.60
2022-09-21T05:25:21.313Z,7.40
2022-09-21T05:26:24.127Z,8.00
2022-09-21T05:27:26.202Z,6.00
2022-09-21T05:28:28.789Z,6.80
2022-09-21T05:29:31.730Z,6.50
2022-09-21T05:30:34.891Z,7.20
2022-09-21T05:31:47.993Z,6.60
2022-09-21T05:32:59.896Z,6.50
2022-09-21T05:34:36.207Z,6.40
2022-09-21T05:35:57.147Z,5.90
2022-09-21T05:37:36.467Z,7.30
2022-09-21T05:38:38.758Z,6.20
2022-09-21T05:39:41.425Z,7.00
2022-09-21T05:40:44.874Z,6.27
2022-09-21T05:41:47.927Z,5.50
2022-09-21T05:42:50.463Z,6.64
2022-09-21T05:43:53.295Z,6.00
2022-09-21T05:44:55.805Z,5.64
2022-09-21T05:46:07.373Z,6.40
2022-09-21T05:47:15.967Z,6.10
2022-09-21T05:48:24.986Z,4.20
2022-09-21T05:49:51.953Z,7.20
2022-09-21T05:52:23.130Z,7.30
2022-09-21T05:54:04.960Z,6.60
2022-09-21T05:55:30.802Z,3.60
2022-09-21T05:56:59.287Z,7.30
2022-09-21T05:58:19.727Z,6.00
2022-09-21T05:59:37.403Z,7.50
2022-09-21T06:00:58.148Z,5.90
2022-09-21T06:02:16.755Z,6.50
2022-09-21T06:03:25.195Z,6.90
2022-09-21T06:04:28.349Z,7.10
2022-09-21T06:05:30.605Z,8.00
2022-09-21T06:06:33.602Z,7.60
2022-09-21T06:07:35.465Z,7.91
2022-09-21T06:08:37.417Z,7.67
2022-09-21T06:09:43.046Z,7.80
2022-09-21T06:10:43.481Z,4.60
2022-09-21T06:11:45.379Z,7.80
2022-09-21T06:12:47.281Z,5.60
2022-09-21T06:13:48.991Z,8.11
2022-09-21T06:14:52.786Z,7.89
2022-09-21T06:15:55.805Z,10.10
2022-09-21T06:16:57.922Z,6.80
2022-09-21T06:18:00.028Z,7.10
2022-09-21T06:19:01.684Z,7.89
2022-09-21T06:20:05.334Z,6.89
2022-09-21T06:21:09.296Z,9.90
2022-09-21T06:22:11.346Z,7.80
2022-09-21T06:23:13.814Z,7.67
2022-09-21T06:24:16.561Z,8.50
2022-09-21T06:25:18.740Z,6.64
2022-09-21T06:26:20.628Z,6.70
2022-09-21T06:27:22.414Z,7.22
2022-09-21T06:28:24.879Z,7.80
2022-09-21T06:29:26.583Z,7.70
2022-09-21T06:30:28.530Z,8.00
2022-09-21T06:31:30.545Z,8.50
2022-09-21T06:32:32.826Z,6.40
2022-09-21T06:33:35.982Z,8.30
2022-09-21T06:34:38.297Z,7.09
2022-09-21T06:35:42.391Z,7.30
2022-09-21T06:36:44.581Z,8.80
2022-09-21T06:37:46.298Z,7.30
2022-09-21T06:38:47.923Z,8.78
2022-09-21T06:39:49.702Z,4.56
2022-09-21T06:40:52.990Z,9.30
2022-09-21T06:41:55.450Z,9.20
2022-09-21T06:42:59.250Z,7.20
2022-09-21T06:44:02.281Z,7.90
2022-09-21T06:45:05.606Z,8.20
2022-09-21T06:46:08.321Z,8.40
2022-09-21T06:47:10.278Z,9.70
2022-09-21T06:48:12.006Z,8.78
2022-09-21T06:49:15.031Z,11.67
2022-09-21T06:50:17.618Z,10.70
2022-09-21T06:51:21.598Z,11.20
2022-09-21T06:52:24.052Z,9.80
2022-09-21T06:53:28.057Z,11.50
2022-09-21T06:54:30.442Z,10.50
2022-09-21T06:55:32.341Z,11.60
2022-09-21T06:56:34.749Z,10.40
2022-09-21T06:57:36.764Z,11.10
2022-09-21T06:58:38.512Z,10.33
2022-09-21T06:59:40.798Z,10.11
2022-09-21T07:00:42.920Z,10.50
2022-09-21T07:01:44.930Z,8.80
2022-09-21T07:02:46.913Z,8.10
2022-09-21T07:03:50.667Z,9.11
2022-09-21T07:04:52.494Z,7.60
2022-09-21T07:05:54.801Z,7.33
2022-09-21T07:06:57.227Z,9.90
2022-09-21T07:07:59.401Z,8.50
2022-09-21T07:10:07.721Z,9.00
2022-09-21T07:11:11.756Z,8.40
2022-09-21T07:12:13.795Z,8.91
2022-09-21T07:13:15.770Z,7.90
2022-09-21T07:14:17.512Z,8.78
2022-09-21T07:15:20.550Z,9.22
2022-09-21T07:16:22.462Z,8.30
2022-09-21T07:17:25.078Z,9.20
2022-09-21T07:18:27.470Z,6.20
2022-09-21T07:19:29.350Z,9.60
2022-09-21T07:20:31.195Z,8.00
2022-09-21T07:21:33.054Z,6.67
2022-09-21T07:22:36.061Z,8.22
2022-09-21T07:23:38.703Z,9.10
2022-09-21T07:24:40.502Z,6.20
2022-09-21T07:25:43.852Z,8.44
2022-09-21T07:26:45.966Z,6.40
2022-09-21T07:27:47.627Z,8.11
2022-09-21T07:28:49.470Z,6.89
2022-09-21T07:29:52.020Z,2.89
2022-09-21T07:30:54.384Z,7.73
2022-09-21T07:31:56.317Z,7.10
2022-09-21T07:32:58.200Z,7.89
2022-09-21T07:33:59.938Z,7.00
2022-09-21T07:35:01.775Z,6.67
2022-09-21T07:36:05.400Z,7.40
2022-09-21T07:37:07.440Z,6.80
2022-09-21T07:38:09.216Z,7.80
2022-09-21T07:39:11.067Z,6.56
2022-09-21T07:40:13.682Z,5.60
2022-09-21T07:41:15.556Z,7.50
2022-09-21T07:42:17.474Z,6.33
2022-09-21T07:43:19.250Z,6.44
2022-09-21T07:44:21.481Z,6.44
2022-09-21T07:45:23.316Z,7.00
2022-09-21T07:46:25.992Z,8.00
2022-09-21T07:47:28.026Z,7.00
2022-09-21T07:48:31.807Z,6.70
2022-09-21T07:49:33.725Z,5.90
2022-09-21T07:50:35.688Z,5.80
2022-09-21T07:51:37.325Z,5.22
2022-09-21T07:52:38.967Z,6.67
2022-09-21T07:53:42.712Z,6.89
2022-09-21T07:54:44.508Z,6.50
2022-09-21T07:55:46.318Z,6.00
2022-09-21T07:56:48.380Z,6.70
2022-09-21T07:57:50.825Z,7.67
2022-09-21T07:58:53.936Z,6.70
2022-09-21T07:59:56.041Z,7.50
2022-09-21T08:00:58.755Z,6.20
2022-09-21T08:02:00.699Z,6.00
2022-09-21T08:03:02.972Z,6.00
2022-09-21T08:04:07.153Z,5.40
2022-09-21T08:05:09.206Z,6.30
2022-09-21T08:06:11.691Z,4.40
2022-09-21T08:07:13.595Z,6.22
2022-09-21T08:08:16.919Z,3.78
2022-09-21T08:09:18.867Z,7.00
2022-09-21T08:10:20.812Z,7.70
2022-09-21T08:11:24.051Z,7.60
2022-09-21T08:12:26.232Z,7.00
2022-09-21T08:13:28.147Z,6.30
2022-09-21T08:14:29.962Z,7.67
2022-09-21T08:15:48.761Z,8.70
2022-09-21T08:16:37.662Z,6.80
2022-09-21T08:17:40.231Z,5.90
2022-09-21T08:18:42.480Z,2.10
2022-09-21T08:19:44.347Z,6.00
2022-09-21T08:20:49.959Z,6.20
2022-09-21T08:21:57.160Z,6.90
2022-09-21T08:22:57.253Z,5.30
2022-09-21T08:23:59.053Z,3.40
2022-09-21T08:25:00.936Z,5.00
2022-09-21T08:26:04.558Z,5.60
2022-09-21T08:27:07.426Z,5.50
2022-09-21T08:28:10.105Z,6.18
2022-09-21T08:29:12.350Z,5.40
2022-09-21T08:30:18.404Z,4.90
2022-09-21T08:31:22.960Z,4.60
2022-09-21T08:32:49.504Z,4.80
2022-09-21T08:33:29.781Z,5.40
2022-09-21T08:34:32.974Z,6.70
2022-09-21T08:35:36.221Z,6.00
2022-09-21T08:36:38.164Z,6.30
2022-09-21T08:37:40.299Z,7.78
2022-09-21T08:38:42.086Z,7.30
2022-09-21T08:39:43.737Z,8.22
2022-09-21T08:40:48.824Z,5.40
2022-09-21T08:42:09.589Z,5.50
2022-09-21T08:43:16.139Z,5.70
2022-09-21T08:44:34.770Z,6.40
2022-09-21T08:45:45.473Z,5.90
2022-09-21T08:46:53.235Z,4.50
2022-09-21T08:47:59.459Z,5.90
2022-09-21T08:49:05.612Z,5.50
2022-09-21T08:50:11.330Z,6.20
2022-09-21T08:51:17.040Z,5.90
2022-09-21T08:52:23.119Z,5.60
2022-09-21T08:53:28.633Z,6.40
2022-09-21T08:54:52.033Z,6.40
2022-09-21T08:55:58.226Z,4.50
2022-09-21T08:57:06.317Z,2.40
2022-09-21T08:59:23.895Z,4.70
2022-09-21T09:00:28.995Z,4.80
2022-09-21T09:01:40.483Z,4.80
2022-09-21T09:02:55.713Z,3.50
2022-09-21T09:05:50.423Z,3.10
2022-09-21T09:06:59.384Z,4.10
2022-09-21T09:08:14.676Z,4.20
2022-09-21T09:09:52.468Z,2.40
2022-09-21T09:11:20.180Z,4.50
2022-09-21T09:12:40.739Z,3.00
2022-09-21T09:14:04.531Z,3.30
2022-09-21T09:15:22.420Z,3.70
2022-09-21T09:16:37.706Z,4.20
2022-09-21T09:17:46.435Z,3.20
2022-09-21T09:19:00.738Z,4.30
2022-09-21T09:20:06.358Z,3.10
2022-09-21T09:21:31.269Z,4.00
2022-09-21T09:22:33.537Z,3.10
2022-09-21T09:23:42.057Z,3.00
2022-09-21T09:24:49.821Z,3.20
2022-09-21T09:25:56.496Z,3.00
2022-09-21T09:27:05.890Z,3.90
2022-09-21T09:28:35.989Z,4.90
2022-09-21T09:29:51.573Z,2.70
2022-09-21T09:31:04.023Z,3.60
2022-09-21T09:32:12.863Z,4.60
2022-09-21T09:33:24.489Z,3.20
2022-09-21T09:34:32.776Z,3.20
2022-09-21T09:35:41.388Z,4.10
2022-09-21T09:36:58.382Z,2.30
2022-09-21T09:37:55.414Z,4.70
2022-09-21T09:39:03.974Z,5.80
2022-09-21T09:40:07.175Z,4.70
2022-09-21T09:41:30.790Z,2.20
2022-09-21T09:42:39.286Z,4.60
2022-09-21T09:43:50.573Z,3.30
2022-09-21T09:45:18.656Z,2.20
2022-09-21T09:46:37.740Z,3.50
2022-09-21T09:47:52.306Z,2.80
2022-09-21T09:49:19.563Z,4.40
2022-09-21T09:50:31.038Z,0.70
2022-09-21T09:51:33.368Z,4.00
2022-09-21T09:52:36.046Z,3.50
2022-09-21T09:53:38.316Z,4.60
2022-09-21T09:54:40.622Z,4.40
2022-09-21T09:55:51.753Z,5.30
2022-09-21T09:56:54.206Z,4.00
2022-09-21T09:57:57.104Z,2.70
2022-09-21T09:59:03.671Z,4.00
2022-09-21T10:00:07.624Z,3.90
2022-09-21T10:01:44.371Z,3.90
2022-09-21T10:02:58.112Z,1.40
2022-09-21T10:04:13.039Z,3.60
2022-09-21T10:05:24.536Z,4.30
2022-09-21T10:06:33.016Z,4.50
2022-09-21T10:07:38.510Z,3.60
2022-09-21T10:08:46.103Z,1.20
2022-09-21T10:09:47.921Z,2.30
2022-09-21T10:10:50.201Z,2.90
2022-09-21T10:11:54.788Z,3.70
2022-09-21T10:13:07.020Z,3.90
2022-09-21T10:14:11.924Z,4.80
2022-09-21T10:15:19.838Z,4.00
2022-09-21T10:16:23.225Z,3.00
2022-09-21T10:17:25.797Z,3.80
2022-09-21T10:18:40.308Z,4.40
2022-09-21T10:19:42.386Z,4.40
2022-09-21T10:20:53.887Z,3.00
2022-09-21T10:22:01.074Z,3.10
2022-09-21T10:23:03.798Z,3.10
2022-09-21T10:24:31.511Z,4.09
2022-09-21T10:25:39.505Z,5.00
2022-09-21T10:26:47.922Z,1.70
2022-09-21T10:27:51.845Z,2.80
2022-09-21T10:29:02.771Z,3.00
2022-09-21T10:30:08.689Z,3.70
2022-09-21T10:31:20.215Z,4.50
2022-09-21T10:33:45.961Z,3.80
2022-09-21T10:35:00.868Z,3.50
2022-09-21T10:36:03.578Z,4.90
2022-09-21T10:37:24.285Z,4.50
2022-09-21T10:38:26.529Z,4.20
2022-09-21T10:39:30.997Z,5.30
2022-09-21T10:40:37.933Z,5.20
2022-09-21T10:41:40.252Z,6.10
2022-09-21T10:42:42.763Z,6.10
2022-09-21T10:43:45.085Z,5.60
2022-09-21T10:44:50.315Z,4.50
2022-09-21T10:45:56.081Z,3.00
2022-09-21T10:47:01.863Z,3.80
2022-09-21T10:48:16.881Z,5.40
2022-09-21T10:49:23.032Z,4.70
2022-09-21T10:50:31.805Z,4.40
2022-09-21T10:51:33.801Z,4.10
2022-09-21T10:52:39.360Z,5.70
2022-09-21T10:53:45.814Z,3.80
2022-09-21T10:54:52.557Z,5.30
2022-09-21T10:56:22.624Z,5.90
2022-09-21T10:57:14.683Z,5.50
2022-09-21T10:58:16.727Z,6.30
2022-09-21T10:59:23.320Z,5.30
2022-09-21T11:00:28.665Z,3.50
2022-09-21T11:01:31.134Z,6.20
2022-09-21T11:02:36.769Z,5.50
2022-09-21T11:03:49.141Z,5.80
2022-09-21T11:04:55.080Z,6.50
2022-09-21T11:06:16.259Z,4.60
2022-09-21T11:07:30.724Z,5.20
2022-09-21T11:08:42.171Z,3.20
2022-09-21T11:09:56.774Z,4.20
2022-09-21T11:11:17.867Z,4.50
2022-09-21T11:12:23.411Z,3.90
2022-09-21T11:13:34.788Z,4.10
2022-09-21T11:14:46.330Z,4.00
2022-09-21T11:15:58.391Z,4.50
2022-09-21T11:17:19.687Z,4.40
2022-09-21T11:18:42.158Z,3.30
2022-09-21T11:19:50.924Z,4.20
2022-09-21T11:20:56.602Z,4.20
2022-09-21T11:22:11.247Z,4.40
2022-09-21T11:23:45.317Z,4.00
2022-09-21T11:25:09.928Z,3.40
2022-09-21T11:26:19.089Z,4.10
2022-09-21T11:27:37.610Z,4.90
2022-09-21T11:29:01.492Z,4.60
2022-09-21T11:30:13.339Z,4.50
2022-09-21T11:31:25.071Z,3.70
2022-09-21T11:32:50.825Z,5.40
2022-09-21T11:34:15.834Z,5.00
2022-09-21T11:35:24.361Z,5.50
2022-09-21T11:36:53.165Z,5.00
2022-09-21T11:38:14.076Z,4.60
2022-09-21T11:42:53.070Z,4.30
2022-09-21T11:44:21.471Z,5.60
2022-09-21T11:45:30.231Z,7.10
2022-09-21T11:46:48.925Z,7.10
2022-09-21T11:47:54.622Z,10.30
2022-09-21T11:49:03.885Z,6.20
2022-09-21T11:50:32.133Z,8.00
2022-09-21T11:51:41.257Z,4.70
2022-09-21T11:53:05.766Z,6.60
2022-09-21T11:54:45.003Z,5.30
2022-09-21T11:56:06.885Z,5.60
2022-09-21T11:57:36.692Z,4.50
2022-09-21T11:58:54.267Z,3.60
2022-09-21T12:00:05.113Z,5.50
2022-09-21T12:01:37.936Z,4.20
2022-09-21T12:02:52.863Z,3.70
2022-09-21T12:03:58.814Z,3.90
2022-09-21T12:05:26.619Z,1.60
2022-09-21T12:06:46.732Z,1.70
2022-09-21T12:08:19.505Z,3.90
2022-09-21T12:09:34.831Z,2.00
2022-09-21T12:10:44.252Z,2.50
2022-09-21T12:11:50.927Z,3.60
2022-09-21T12:12:59.362Z,2.60
2022-09-21T12:14:26.457Z,2.80
2022-09-21T12:15:48.440Z,2.90
2022-09-21T12:18:31.243Z,1.80
2022-09-21T12:21:11.411Z,2.70
2022-09-21T12:22:18.247Z,1.50
2022-09-21T12:23:30.993Z,2.10
2022-09-21T12:24:36.496Z,3.00
2022-09-21T12:25:41.985Z,2.80
2022-09-21T12:26:56.841Z,1.90
2022-09-21T12:28:29.729Z,0.30
2022-09-21T12:29:35.922Z,3.00
2022-09-21T12:30:41.255Z,2.40
2022-09-21T12:31:49.929Z,2.70
2022-09-21T12:32:55.939Z,2.50
2022-09-21T12:34:03.542Z,1.40
2022-09-21T12:35:09.118Z,1.90
2022-09-21T12:36:18.802Z,2.00
2022-09-21T12:37:39.647Z,1.00
2022-09-21T12:38:55.106Z,2.00
2022-09-21T12:40:06.708Z,1.80
2022-09-21T12:41:18.616Z,2.70
2022-09-21T12:42:48.412Z,1.60
2022-09-21T12:43:57.398Z,2.10
2022-09-21T12:45:21.161Z,3.20
2022-09-21T12:46:32.848Z,2.80
2022-09-21T12:47:52.797Z,3.50
2022-09-21T12:49:01.146Z,2.10
2022-09-21T12:50:06.751Z,2.40
2022-09-21T12:51:16.486Z,1.20
2022-09-21T12:52:24.950Z,1.80
2022-09-21T12:53:30.900Z,2.50
2022-09-21T12:54:43.549Z,3.00
2022-09-21T12:55:58.058Z,2.50
2022-09-21T12:58:29.317Z,2.10
2022-09-21T13:01:13.935Z,1.90
2022-09-21T13:02:25.874Z,2.10
2022-09-21T13:03:34.953Z,1.90
2022-09-21T13:05:00.687Z,1.80
2022-09-21T13:06:27.691Z,2.00
2022-09-21T13:07:42.077Z,1.80
2022-09-21T13:08:46.842Z,2.70
2022-09-21T13:09:50.256Z,1.90
2022-09-21T13:11:00.980Z,2.00
2022-09-21T13:12:10.525Z,1.90
2022-09-21T13:13:28.053Z,2.40
2022-09-21T13:14:33.302Z,1.40
2022-09-21T13:15:45.042Z,2.00
2022-09-21T13:16:51.767Z,2.00
2022-09-21T13:18:05.712Z,1.90
2022-09-21T13:19:17.149Z,2.20
2022-09-21T13:20:21.216Z,2.20
2022-09-21T13:21:29.488Z,1.70
2022-09-21T13:22:36.584Z,1.50
2022-09-21T13:23:39.908Z,1.20
2022-09-21T13:24:43.768Z,2.30
2022-09-21T13:26:01.403Z,1.90
2022-09-21T13:27:03.581Z,1.10
2022-09-21T13:28:17.516Z,2.60
2022-09-21T13:29:23.126Z,1.70
2022-09-21T13:30:35.317Z,1.90
2022-09-21T13:31:59.008Z,1.80
2022-09-21T13:33:04.012Z,2.30
2022-09-21T13:34:25.128Z,1.90
2022-09-21T13:35:47.990Z,2.60
2022-09-21T13:37:12.181Z,2.10
2022-09-21T13:38:41.964Z,2.80
2022-09-21T13:40:02.327Z,1.90
2022-09-21T13:41:11.244Z,2.60
2022-09-21T13:42:34.130Z,2.70
2022-09-21T13:43:48.483Z,1.60
2022-09-21T13:44:50.487Z,1.80
2022-09-21T13:45:55.785Z,2.20
2022-09-21T13:46:58.395Z,1.20
2022-09-21T13:48:04.307Z,1.90
2022-09-21T13:49:15.760Z,2.00
2022-09-21T13:50:33.128Z,1.20
2022-09-21T13:51:37.027Z,1.40
2022-09-21T13:52:48.828Z,1.10
2022-09-21T13:53:54.399Z,0.90
2022-09-21T13:55:02.957Z,1.70
2022-09-21T13:56:11.380Z,1.00
2022-09-21T13:57:32.066Z,1.80
2022-09-21T13:58:37.681Z,1.60
2022-09-21T13:59:42.861Z,3.20
2022-09-21T14:00:58.473Z,2.90
2022-09-21T14:02:03.101Z,3.00
2022-09-21T14:03:28.542Z,1.90
2022-09-21T14:04:36.111Z,1.80
2022-09-21T14:05:44.389Z,2.20
2022-09-21T14:06:49.399Z,1.20
2022-09-21T14:08:00.769Z,1.10
2022-09-21T14:09:09.015Z,1.60
2022-09-21T14:10:18.410Z,1.20
2022-09-21T14:11:23.912Z,1.70
2022-09-21T14:12:28.925Z,2.10
2022-09-21T14:13:43.261Z,1.80
2022-09-21T14:14:49.940Z,1.10
2022-09-21T14:15:52.065Z,0.10
2022-09-21T14:16:59.927Z,1.50
2022-09-21T14:18:14.266Z,2.40
2022-09-21T14:19:22.829Z,1.80
2022-09-21T14:20:35.836Z,1.80
2022-09-21T14:21:36.616Z,1.00
2022-09-21T14:22:40.214Z,0.50
2022-09-21T14:24:03.910Z,1.70
2022-09-21T14:25:28.891Z,1.20
2022-09-21T14:26:34.110Z,2.90
2022-09-21T14:27:46.058Z,1.90
2022-09-21T14:28:50.959Z,1.50
2022-09-21T14:29:56.240Z,0.50
2022-09-21T14:31:02.024Z,2.10
2022-09-21T14:32:07.209Z,2.00
2022-09-21T14:33:22.099Z,2.00
2022-09-21T14:34:27.993Z,2.30
2022-09-21T14:35:36.665Z,3.10
2022-09-21T14:36:44.651Z,2.30
2022-09-21T14:37:50.090Z,2.20
2022-09-21T14:38:55.776Z,2.20
2022-09-21T14:40:02.351Z,2.70
2022-09-21T14:41:07.115Z,3.00
2022-09-21T14:42:18.500Z,3.20
2022-09-21T14:43:32.821Z,0.20
2022-09-21T14:44:36.805Z,3.80
2022-09-21T14:46:12.773Z,2.00
2022-09-21T14:47:31.299Z,2.50
2022-09-21T14:48:58.428Z,2.80
2022-09-21T14:50:25.716Z,1.70
2022-09-21T14:51:55.759Z,4.20
2022-09-21T14:52:59.493Z,4.80
2022-09-21T14:54:11.540Z,2.70
2022-09-21T14:55:33.914Z,4.00
2022-09-21T14:57:08.633Z,4.70
2022-09-21T14:58:20.202Z,2.80
2022-09-21T14:59:34.748Z,3.80
2022-09-21T15:00:43.167Z,3.10
2022-09-21T15:02:04.291Z,3.40
2022-09-21T15:03:26.794Z,2.60
2022-09-21T15:04:46.252Z,3.40
2022-09-21T15:06:01.142Z,2.50
2022-09-21T15:07:13.060Z,2.90
2022-09-21T15:08:19.117Z,2.00
2022-09-21T15:09:24.646Z,3.00
2022-09-21T15:10:31.284Z,2.90
2022-09-21T15:11:39.926Z,4.40
2022-09-21T15:13:06.784Z,2.50
2022-09-21T15:14:18.336Z,3.10
2022-09-21T15:15:39.107Z,3.70
2022-09-21T15:16:43.657Z,3.20
2022-09-21T15:17:59.635Z,2.80
2022-09-21T15:19:22.431Z,3.30
2022-09-21T15:20:27.686Z,3.00
2022-09-21T15:21:31.844Z,3.80
2022-09-21T15:22:37.422Z,3.00
2022-09-21T15:23:43.182Z,3.00